Weather History for Lakeville, MN

Change the Weather History Date:

Wednesday, April 17, 2013

  Actual Average Record
Temperature  
Mean Temperature 34 °F -  
Max Temperature 37 °F 61 °F 85 °F (1985)
Min Temperature 32 °F 37 °F 16 °F (1983)
Degree Days  
Heating Degree Days 30    
Moisture  
Dew Point 30 °F    
Average Humidity 87    
Maximum Humidity 100    
Minimum Humidity 75    
Precipitation  
Precipitation 0.00 in - - ()
Sea Level Pressure  
Sea Level Pressure 30.14 in    
Wind  
Wind Speed 6 mph (ENE)    
Max Wind Speed 18 mph    
Max Gust Speed 24 mph    
Visibility 8 miles    
Events Rain , Snow    
Averages and records for this station are not official NWS values.
T = Trace of Precipitation, MM = Missing Value Source: NWS Daily Summary

Daily Weather History Graph

Daily Weather History Graph

Search for Another Location

Airport:

Trip Planner

Search our weather history database for the weather conditions in past years. The results will help you decide how hot, cold, wet, or windy it might be!

Date:

Astronomy

Apr. 17, 2013 Rise Set
Actual Time 6:24 AM CDT 8:00 PM CDT
Civil Twilight 5:54 AM CDT 8:31 PM CDT
Nautical Twilight 5:17 AM CDT 9:08 PM CDT
Astronomical Twilight 4:37 AM CDT 9:48 PM CDT
Moon 11:34 AM CDT (4/17) 1:43 AM CDT (4/17)
Length of Visible Light 14h 37m
Length of Day
13h 35m
Waxing Crescent, 42% of the Moon is Illuminated
Apr 17
Waxing Crescent
Apr 18
First Quarter
Apr 25
Full
May 2
Last Quarter
May 9
New

Hourly Weather History & Observations

Time (CDT) Temp. Windchill Dew Point Humidity Pressure Visibility Wind Dir Wind Speed Gust Speed Precip Events Conditions
12:03 AM 32.0 °F - 28.4 °F 87% 30.30 in 10.0 mi Calm Calm - N/A   Clear
12:23 AM 33.8 °F - 28.4 °F 81% 30.31 in 10.0 mi Calm Calm - N/A   Clear
12:42 AM 33.8 °F - 28.4 °F 81% 30.31 in 10.0 mi Calm Calm - N/A   Clear
1:03 AM 33.8 °F - 28.4 °F 81% 30.31 in 10.0 mi Calm Calm - N/A   Clear
1:22 AM 32.0 °F - 28.4 °F 87% 30.30 in 10.0 mi Calm Calm - N/A   Clear
1:43 AM 32.0 °F - 28.4 °F 87% 30.30 in 10.0 mi Calm Calm - N/A   Scattered Clouds
2:03 AM 32.0 °F - 28.4 °F 87% 30.30 in 10.0 mi Calm Calm - N/A   Scattered Clouds
2:22 AM 32.0 °F - 26.6 °F 80% 30.29 in 10.0 mi Calm Calm - N/A   Clear
2:43 AM 33.8 °F - 26.6 °F 75% 30.30 in 10.0 mi Calm Calm - N/A   Clear
3:02 AM 32.0 °F - 26.6 °F 80% 30.30 in 10.0 mi Calm Calm - N/A   Clear
3:23 AM 32.0 °F - 26.6 °F 80% 30.30 in 10.0 mi Calm Calm - N/A   Mostly Cloudy
3:42 AM 33.8 °F 29.6 °F 26.6 °F 75% 30.29 in 10.0 mi NNE 4.6 mph - N/A   Overcast
4:02 AM 33.8 °F 30.8 °F 26.6 °F 75% 30.29 in 10.0 mi NE 3.5 mph - N/A   Overcast
4:23 AM 33.8 °F 30.8 °F 28.4 °F 81% 30.27 in 10.0 mi NE 3.5 mph - N/A   Mostly Cloudy
4:42 AM 33.8 °F - 28.4 °F 81% 30.25 in 10.0 mi Calm Calm - N/A   Scattered Clouds
5:03 AM 33.8 °F 28.6 °F 26.6 °F 75% 30.24 in 10.0 mi NE 5.8 mph - N/A   Scattered Clouds
5:22 AM 33.8 °F 27.7 °F 26.6 °F 75% 30.22 in 10.0 mi NE 6.9 mph - N/A   Clear
5:43 AM 32.0 °F 26.4 °F 26.6 °F 80% 30.21 in 10.0 mi NE 5.8 mph - N/A   Scattered Clouds
6:02 AM 32.0 °F 26.4 °F 26.6 °F 80% 30.21 in 10.0 mi NE 5.8 mph - N/A   Mostly Cloudy
6:23 AM 33.8 °F 29.6 °F 26.6 °F 75% 30.23 in 10.0 mi NE 4.6 mph - N/A   Overcast
6:43 AM 33.8 °F 30.8 °F 26.6 °F 75% 30.27 in 10.0 mi East 3.5 mph - N/A   Overcast
7:02 AM 33.8 °F 29.6 °F 26.6 °F 75% 30.28 in 10.0 mi East 4.6 mph - N/A   Overcast
7:23 AM 33.8 °F 29.6 °F 28.4 °F 81% 30.27 in 10.0 mi ENE 4.6 mph - N/A   Overcast
7:42 AM 33.8 °F 27.0 °F 28.4 °F 81% 30.25 in 10.0 mi ENE 8.1 mph - N/A   Overcast
8:03 AM 33.8 °F 27.0 °F 28.4 °F 81% 30.25 in 10.0 mi East 8.1 mph - N/A   Overcast
8:23 AM 33.8 °F 26.4 °F 28.4 °F 81% 30.24 in 10.0 mi ENE 9.2 mph - N/A   Overcast
9:03 AM 33.8 °F 26.4 °F 28.4 °F 81% 30.22 in 10.0 mi ENE 9.2 mph - N/A   Overcast
9:22 AM 33.8 °F 27.0 °F 28.4 °F 81% 30.22 in 10.0 mi NE 8.1 mph - N/A   Overcast
9:42 AM 33.8 °F 26.4 °F 28.4 °F 81% 30.22 in 10.0 mi ENE 9.2 mph - N/A   Overcast
10:03 AM 33.8 °F 28.6 °F 28.4 °F 81% 30.23 in 10.0 mi ENE 5.8 mph - N/A   Overcast
10:22 AM 35.6 °F 29.2 °F 28.4 °F 75% 30.24 in 10.0 mi East 8.1 mph - N/A   Overcast
10:43 AM 35.6 °F 28.6 °F 30.2 °F 81% 30.25 in 10.0 mi East 9.2 mph - N/A   Overcast
11:02 AM 35.6 °F 28.6 °F 28.4 °F 75% 30.24 in 10.0 mi ENE 9.2 mph - N/A   Overcast
11:23 AM 35.6 °F 27.5 °F 30.2 °F 81% 30.22 in 10.0 mi East 11.5 mph - N/A   Scattered Clouds
11:42 AM 33.8 °F 25.3 °F 30.2 °F 87% 30.19 in 5.0 mi ENE 11.5 mph - N/A Snow Light Snow
12:03 PM 33.8 °F 25.8 °F 30.2 °F 87% 30.16 in 4.0 mi ENE 10.4 mph - N/A Rain Rain
12:22 PM 33.8 °F 24.3 °F 30.2 °F 87% 30.14 in 7.0 mi ENE 13.8 mph - N/A Rain Light Rain
12:42 PM 33.8 °F 25.8 °F 30.2 °F 87% 30.14 in 3.0 mi ENE 10.4 mph - N/A Rain Light Rain
1:03 PM 35.6 °F 27.5 °F 32.0 °F 87% 30.12 in 10.0 mi NE 11.5 mph 18.4 mph N/A Rain Light Rain
1:22 PM 35.6 °F 27.1 °F 33.8 °F 93% 30.11 in 10.0 mi ENE 12.7 mph - N/A   Mostly Cloudy
1:43 PM 35.6 °F 25.9 °F 32.0 °F 87% 30.09 in 10.0 mi ENE 16.1 mph - N/A   Overcast
2:02 PM 35.6 °F 26.2 °F 32.0 °F 87% 30.10 in 10.0 mi ENE 15.0 mph 21.9 mph N/A   Overcast
2:22 PM 35.6 °F 26.6 °F 32.0 °F 87% 30.08 in 10.0 mi ENE 13.8 mph 18.4 mph N/A   Overcast
2:43 PM 35.6 °F 26.6 °F 32.0 °F 87% 30.08 in 10.0 mi ENE 13.8 mph - N/A   Overcast
3:23 PM 37.4 °F 29.3 °F 32.0 °F 81% 30.06 in 10.0 mi ENE 12.7 mph - N/A   Overcast
3:42 PM 37.4 °F 28.9 °F 33.8 °F 87% 30.06 in 7.0 mi ENE 13.8 mph 18.4 mph N/A   Overcast
4:03 PM 35.6 °F 26.2 °F 33.8 °F 93% 30.05 in 5.0 mi ENE 15.0 mph 18.4 mph N/A   Overcast
4:23 PM 35.6 °F 25.9 °F 33.8 °F 93% 30.04 in 4.0 mi ENE 16.1 mph - N/A   Light Drizzle
4:42 PM 35.6 °F 26.6 °F 33.8 °F 93% 30.02 in 2.5 mi ENE 13.8 mph - N/A Rain Rain
5:03 PM 35.6 °F 27.1 °F 33.8 °F 93% 30.01 in 2.5 mi ENE 12.7 mph - N/A Snow Light Snow
5:22 PM 35.6 °F 28.6 °F 33.8 °F 93% 30.01 in 4.0 mi NE 9.2 mph 18.4 mph N/A Rain Light Rain
5:43 PM 35.6 °F 27.5 °F 33.8 °F 93% 30.00 in 3.0 mi NE 11.5 mph - N/A Rain Light Rain
6:03 PM 35.6 °F 27.1 °F 33.8 °F 93% 30.00 in 3.0 mi NE 12.7 mph - N/A Rain Light Rain
6:22 PM 33.8 °F 24.8 °F 33.8 °F 100% 30.00 in 3.0 mi NE 12.7 mph - N/A Rain Light Rain
6:43 PM 33.8 °F 23.9 °F 33.8 °F 100% 29.98 in 4.0 mi NE 15.0 mph - N/A Rain Light Rain
7:02 PM 33.8 °F 24.3 °F 33.8 °F 100% 29.97 in 5.0 mi NE 13.8 mph - N/A Rain Light Rain
7:23 PM 33.8 °F 23.2 °F 33.8 °F 100% 29.97 in 10.0 mi NE 17.3 mph 24.2 mph N/A   Overcast
7:43 PM 33.8 °F 23.5 °F 33.8 °F 100% 29.97 in 10.0 mi NE 16.1 mph 20.7 mph N/A   Overcast
8:02 PM 33.8 °F 24.8 °F 33.8 °F 100% 29.98 in 5.0 mi NE 12.7 mph 18.4 mph N/A Rain Light Rain
8:23 PM 33.8 °F 24.3 °F 33.8 °F 100% 29.98 in 4.0 mi ENE 13.8 mph - N/A Rain Light Rain
9:03 PM 33.8 °F 25.3 °F 33.8 °F 100% 30.00 in 4.0 mi NE 11.5 mph - N/A Rain Light Rain
9:42 PM 33.8 °F 24.3 °F 33.8 °F 100% 29.94 in 4.0 mi NE 13.8 mph - N/A Rain Rain
10:03 PM 33.8 °F 23.5 °F 33.8 °F 100% 29.90 in 4.0 mi NE 16.1 mph 21.9 mph N/A Rain Light Rain
10:22 PM 33.8 °F 22.8 °F 33.8 °F 100% 29.88 in 7.0 mi NE 18.4 mph - N/A Rain Light Rain
10:43 PM 33.8 °F 25.8 °F 33.8 °F 100% 29.92 in 10.0 mi ENE 10.4 mph - N/A Rain Light Rain
11:02 PM 33.8 °F 25.3 °F 33.8 °F 100% 29.89 in 5.0 mi NE 11.5 mph - N/A Rain Light Rain
11:22 PM 33.8 °F 24.3 °F 33.8 °F 100% 29.90 in 7.0 mi NE 13.8 mph 18.4 mph N/A Rain Light Rain
11:43 PM 33.8 °F 24.8 °F 33.8 °F 100% 29.89 in 4.0 mi NE 12.7 mph - N/A Rain Light Rain